KDTW/DTW METAR and TAF weather

Enter ICAO airport designator
Station Type Date Time Source
KDTW METAR 2021/04/17 00:53 UTC NOAA

KDTW 170053Z 00000KT 10SM BKN060 11/03 A2988 RMK AO2 SLP121 T01110033


Station Type Date Time Source
KDTW Decoded METAR 2021/04/17 00:53 UTC NOAA

DETROIT METROPOLITAN, MI, United States (KDTW) 42-14N 83-20W 195M
Apr 16, 2021 - 08:53 PM EDT / 2021.04.17 0053 UTC
Wind: Calm:0
Visibility: 10 mile(s):0
Sky conditions: mostly cloudy
Temperature: 52.0 F (11.1 C)
Dew Point: 37.9 F (3.3 C)
Relative Humidity: 58%
Pressure (altimeter): 29.88 in. Hg (1011 hPa)
ob: KDTW 170053Z 00000KT 10SM BKN060 11/03 A2988 RMK AO2 SLP121 T01110033
cycle: 1

Station Type Date Time Source
KDTW TAF 2021/04/16 21:15 UTC NOAA

TAF
AMD KDTW 162113Z 1621/1724 30008KT P6SM BKN035
FM170000 VRB04KT P6SM SCT035 BKN040
FM170600 36004KT P6SM SCT025 OVC035
FM171700 29004KT P6SM BKN035

Example: see airport list